イヌヴィック の空港の天気 - METARとTAF

イヌヴィック空港 ( CYEV / YEV ) - カナダ ノースウエスト準州イヌヴィック
飛行場実況気象(Metar)
観測時間01/23 01:00 MST (01/23 08:00 UTC)
風向・風速静穏 0m/s
視程10km以上
天気現象弱い雪
全天の8割程度の雲 雲底高度 430m
全天を覆う雲 雲底高度 2960m
気温-24℃
湿度76%
気圧1022.8hPa
METARCYEV 230800Z 00000KT 15SM -SN BKN014 OVC097 M24/M27 A3017 RMK SC5AC3 SLP228
過去の天気等 Google飛行場航空写真 Wunderground天気予報

過去48時間のMETAR

飛行場予報(TAF)
発表時間: 1/22 23:38 MST (1/23 06:38 UTC)
予報対象時間: 23日0時 MST ~ 23日12時 MST
風向・風速不定 2m/s
視程10km以上
天気現象弱い雪
全天の4割程度の雲 雲底高度 370m
全天を覆う雲 雲底高度 910m
23日0時 MST ~ 23日12時 MST に一時的に
視程8,050m
天気現象弱い雪
全天の8割程度の雲 雲底高度 370m
全天を覆う雲 雲底高度 910m
TAF CYEV 230638Z 2307/2319 VRB03KT P6SM -SN SCT012 OVC030
TEMPO 2307/2319 5SM -SN BKN012 OVC030 RMK NXT FCST BY 231300Z